sensor_id;sensor_type;location;lat;lon;timestamp;pressure;altitude;pressure_sealevel;temperature;humidity
31121;BME280;17770;45.966;13.632;2022-09-27T00:00:56;99263.88;;;21.71;55.07
31121;BME280;17770;45.966;13.632;2022-09-27T00:03:22;99265.53;;;21.72;55.12
31121;BME280;17770;45.966;13.632;2022-09-27T00:05:48;99260.28;;;21.72;55.92
31121;BME280;17770;45.966;13.632;2022-09-27T00:08:14;99242.88;;;21.71;55.90
31121;BME280;17770;45.966;13.632;2022-09-27T00:10:40;99243.84;;;21.70;55.93
31121;BME280;17770;45.966;13.632;2022-09-27T00:13:06;99242.88;;;21.71;55.61
31121;BME280;17770;45.966;13.632;2022-09-27T00:15:31;99240.41;;;21.70;55.62
31121;BME280;17770;45.966;13.632;2022-09-27T00:17:57;99236.94;;;21.69;55.57
31121;BME280;17770;45.966;13.632;2022-09-27T00:20:23;99209.16;;;21.67;55.67
31121;BME280;17770;45.966;13.632;2022-09-27T00:22:49;99181.97;;;21.68;55.48
31121;BME280;17770;45.966;13.632;2022-09-27T00:25:15;99159.16;;;21.68;55.23
31121;BME280;17770;45.966;13.632;2022-09-27T00:27:41;99177.66;;;21.67;55.57
31121;BME280;17770;45.966;13.632;2022-09-27T00:30:07;99181.28;;;21.66;55.48
31121;BME280;17770;45.966;13.632;2022-09-27T00:32:33;99182.13;;;21.66;55.71
31121;BME280;17770;45.966;13.632;2022-09-27T00:34:59;99165.53;;;21.66;55.56
31121;BME280;17770;45.966;13.632;2022-09-27T00:37:25;99139.28;;;21.66;55.70
31121;BME280;17770;45.966;13.632;2022-09-27T00:39:52;99116.50;;;21.66;55.66
31121;BME280;17770;45.966;13.632;2022-09-27T00:42:18;99124.38;;;21.66;55.74
31121;BME280;17770;45.966;13.632;2022-09-27T00:45:03;99140.94;;;21.67;55.52
31121;BME280;17770;45.966;13.632;2022-09-27T00:47:34;99146.31;;;21.65;55.76
31121;BME280;17770;45.966;13.632;2022-09-27T00:50:06;99144.53;;;21.66;55.30
31121;BME280;17770;45.966;13.632;2022-09-27T00:52:40;99138.59;;;21.64;55.38
31121;BME280;17770;45.966;13.632;2022-09-27T00:55:18;99158.66;;;21.65;55.52
31121;BME280;17770;45.966;13.632;2022-09-27T00:57:45;99166.66;;;21.63;55.04
31121;BME280;17770;45.966;13.632;2022-09-27T01:00:12;99162.22;;;21.64;55.40
31121;BME280;17770;45.966;13.632;2022-09-27T01:02:40;99156.16;;;21.63;55.24
31121;BME280;17770;45.966;13.632;2022-09-27T01:05:07;99133.66;;;21.61;55.51
31121;BME280;17770;45.966;13.632;2022-09-27T01:07:34;99131.03;;;21.61;55.44
31121;BME280;17770;45.966;13.632;2022-09-27T01:10:00;99129.09;;;21.63;55.66
31121;BME280;17770;45.966;13.632;2022-09-27T01:14:57;99103.94;;;21.60;55.17
31121;BME280;17770;45.966;13.632;2022-09-27T01:17:31;99091.81;;;21.59;55.21
31121;BME280;17770;45.966;13.632;2022-09-27T01:31:03;99076.22;;;21.58;55.12
31121;BME280;17770;45.966;13.632;2022-09-27T01:33:33;99074.69;;;21.55;55.35
31121;BME280;17770;45.966;13.632;2022-09-27T01:44:38;99058.00;;;21.56;55.72
31121;BME280;17770;45.966;13.632;2022-09-27T01:47:22;99051.22;;;21.54;55.34
31121;BME280;17770;45.966;13.632;2022-09-27T01:50:32;99043.50;;;21.52;55.47
31121;BME280;17770;45.966;13.632;2022-09-27T01:52:52;99025.13;;;21.52;55.50
31121;BME280;17770;45.966;13.632;2022-09-27T01:55:20;99022.50;;;21.52;55.21
31121;BME280;17770;45.966;13.632;2022-09-27T01:57:49;99017.25;;;21.52;55.38
31121;BME280;17770;45.966;13.632;2022-09-27T02:00:23;99024.31;;;21.52;55.78
31121;BME280;17770;45.966;13.632;2022-09-27T02:02:50;99030.53;;;21.51;55.20
31121;BME280;17770;45.966;13.632;2022-09-27T02:05:35;99025.13;;;21.52;55.71
31121;BME280;17770;45.966;13.632;2022-09-27T02:10:53;99024.31;;;21.52;55.95
31121;BME280;17770;45.966;13.632;2022-09-27T02:13:31;99033.00;;;21.52;55.49
31121;BME280;17770;45.966;13.632;2022-09-27T02:16:20;99043.50;;;21.52;55.59
31121;BME280;17770;45.966;13.632;2022-09-27T02:21:17;99060.22;;;21.51;55.36
31121;BME280;17770;45.966;13.632;2022-09-27T02:23:49;99074.31;;;21.50;55.58
31121;BME280;17770;45.966;13.632;2022-09-27T02:26:19;99076.13;;;21.50;55.63
31121;BME280;17770;45.966;13.632;2022-09-27T02:31:22;99070.03;;;21.49;55.32
31121;BME280;17770;45.966;13.632;2022-09-27T02:33:53;99053.47;;;21.49;55.32
31121;BME280;17770;45.966;13.632;2022-09-27T02:36:21;99059.53;;;21.49;55.38
31121;BME280;17770;45.966;13.632;2022-09-27T02:38:47;99061.47;;;21.47;55.34
31121;BME280;17770;45.966;13.632;2022-09-27T02:41:17;99054.44;;;21.48;55.06
31121;BME280;17770;45.966;13.632;2022-09-27T02:43:44;99041.47;;;21.46;55.50
31121;BME280;17770;45.966;13.632;2022-09-27T02:54:46;99016.34;;;21.44;55.34
31121;BME280;17770;45.966;13.632;2022-09-27T03:00:13;98999.78;;;21.43;55.42
31121;BME280;17770;45.966;13.632;2022-09-27T03:08:27;98983.22;;;21.43;55.30
31121;BME280;17770;45.966;13.632;2022-09-27T03:10:53;98967.63;;;21.41;55.82
31121;BME280;17770;45.966;13.632;2022-09-27T03:13:19;98964.03;;;21.42;55.34
31121;BME280;17770;45.966;13.632;2022-09-27T03:15:45;98965.16;;;21.40;55.35
31121;BME280;17770;45.966;13.632;2022-09-27T03:18:17;98956.44;;;21.39;55.60
31121;BME280;17770;45.966;13.632;2022-09-27T03:21:02;98939.72;;;21.40;55.19
31121;BME280;17770;45.966;13.632;2022-09-27T03:23:28;98952.03;;;21.40;55.29
31121;BME280;17770;45.966;13.632;2022-09-27T03:25:54;98937.25;;;21.39;55.41
31121;BME280;17770;45.966;13.632;2022-09-27T03:28:20;98930.22;;;21.39;55.32
31121;BME280;17770;45.966;13.632;2022-09-27T03:30:46;98926.91;;;21.37;55.36
31121;BME280;17770;45.966;13.632;2022-09-27T03:33:26;98919.88;;;21.38;55.27
31121;BME280;17770;45.966;13.632;2022-09-27T03:35:56;98914.63;;;21.38;55.43
31121;BME280;17770;45.966;13.632;2022-09-27T03:38:22;98916.28;;;21.39;55.39
31121;BME280;17770;45.966;13.632;2022-09-27T03:40:48;98911.19;;;21.37;55.49
31121;BME280;17770;45.966;13.632;2022-09-27T03:43:14;98914.78;;;21.36;55.81
31121;BME280;17770;45.966;13.632;2022-09-27T03:45:41;98906.09;;;21.36;55.20
31121;BME280;17770;45.966;13.632;2022-09-27T03:48:09;98913.16;;;21.35;55.67
31121;BME280;17770;45.966;13.632;2022-09-27T03:50:36;98909.53;;;21.36;55.26
31121;BME280;17770;45.966;13.632;2022-09-27T03:53:01;98912.16;;;21.36;55.72
31121;BME280;17770;45.966;13.632;2022-09-27T03:55:27;98906.91;;;21.36;55.37
31121;BME280;17770;45.966;13.632;2022-09-27T03:57:54;98905.28;;;21.35;55.73
31121;BME280;17770;45.966;13.632;2022-09-27T04:00:20;98895.75;;;21.34;55.65
31121;BME280;17770;45.966;13.632;2022-09-27T04:02:46;98901.81;;;21.35;55.57
31121;BME280;17770;45.966;13.632;2022-09-27T04:05:21;98896.56;;;21.35;55.46
31121;BME280;17770;45.966;13.632;2022-09-27T04:07:47;98892.44;;;21.32;55.47
31121;BME280;17770;45.966;13.632;2022-09-27T04:10:15;98880.31;;;21.31;55.97
31121;BME280;17770;45.966;13.632;2022-09-27T04:12:41;98888.19;;;21.31;55.55
31121;BME280;17770;45.966;13.632;2022-09-27T04:15:07;98881.41;;;21.29;55.84
31121;BME280;17770;45.966;13.632;2022-09-27T04:18:00;98881.28;;;21.30;55.57
31121;BME280;17770;45.966;13.632;2022-09-27T04:20:29;98879.63;;;21.29;55.48
31121;BME280;17770;45.966;13.632;2022-09-27T04:22:55;98881.28;;;21.30;55.52
31121;BME280;17770;45.966;13.632;2022-09-27T04:25:21;98883.22;;;21.28;55.59
31121;BME280;17770;45.966;13.632;2022-09-27T04:27:49;98883.22;;;21.28;55.62
31121;BME280;17770;45.966;13.632;2022-09-27T04:30:21;98886.66;;;21.29;55.52
31121;BME280;17770;45.966;13.632;2022-09-27T04:33:16;98880.47;;;21.30;56.03
31121;BME280;17770;45.966;13.632;2022-09-27T04:35:44;98884.88;;;21.29;55.73
31121;BME280;17770;45.966;13.632;2022-09-27T04:38:29;98871.91;;;21.28;56.00
31121;BME280;17770;45.966;13.632;2022-09-27T04:40:55;98876.06;;;21.30;55.92
31121;BME280;17770;45.966;13.632;2022-09-27T04:43:22;98864.56;;;21.31;56.16
31121;BME280;17770;45.966;13.632;2022-09-27T04:45:47;98871.59;;;21.31;56.18
31121;BME280;17770;45.966;13.632;2022-09-27T04:48:13;98873.44;;;21.30;55.81
31121;BME280;17770;45.966;13.632;2022-09-27T04:50:39;98871.06;;;21.27;55.75
31121;BME280;17770;45.966;13.632;2022-09-27T04:55:31;98869.59;;;21.25;55.68
31121;BME280;17770;45.966;13.632;2022-09-27T04:57:59;98874.84;;;21.25;55.45
31121;BME280;17770;45.966;13.632;2022-09-27T05:00:26;98874.69;;;21.26;55.68
31121;BME280;17770;45.966;13.632;2022-09-27T05:03:00;98876.63;;;21.24;55.55
31121;BME280;17770;45.966;13.632;2022-09-27T05:05:52;98878.41;;;21.24;55.59
31121;BME280;17770;45.966;13.632;2022-09-27T05:08:18;98863.50;;;21.24;55.75
31121;BME280;17770;45.966;13.632;2022-09-27T05:11:04;98870.69;;;21.22;55.79
31121;BME280;17770;45.966;13.632;2022-09-27T05:13:30;98875.94;;;21.22;55.81
31121;BME280;17770;45.966;13.632;2022-09-27T05:16:00;98863.66;;;21.23;55.54
31121;BME280;17770;45.966;13.632;2022-09-27T05:18:45;98861.34;;;21.20;55.70
31121;BME280;17770;45.966;13.632;2022-09-27T05:21:37;98865.75;;;21.19;55.21
31121;BME280;17770;45.966;13.632;2022-09-27T05:24:03;98866.75;;;21.18;55.32
31121;BME280;17770;45.966;13.632;2022-09-27T05:26:29;98866.88;;;21.17;55.63
31121;BME280;17770;45.966;13.632;2022-09-27T05:28:55;98858.19;;;21.16;55.78
31121;BME280;17770;45.966;13.632;2022-09-27T05:31:21;98860.81;;;21.16;55.34
31121;BME280;17770;45.966;13.632;2022-09-27T05:33:46;98859.19;;;21.15;55.55
31121;BME280;17770;45.966;13.632;2022-09-27T05:36:41;98862.59;;;21.16;55.44
31121;BME280;17770;45.966;13.632;2022-09-27T05:39:07;98864.41;;;21.15;55.64
31121;BME280;17770;45.966;13.632;2022-09-27T05:41:34;98865.38;;;21.14;55.65
31121;BME280;17770;45.966;13.632;2022-09-27T05:44:00;98868.81;;;21.15;55.88
31121;BME280;17770;45.966;13.632;2022-09-27T05:46:26;98867.19;;;21.14;55.44
31121;BME280;17770;45.966;13.632;2022-09-27T05:48:52;98863.75;;;21.13;55.46
31121;BME280;17770;45.966;13.632;2022-09-27T05:51:18;98862.91;;;21.13;55.61
31121;BME280;17770;45.966;13.632;2022-09-27T05:53:46;98861.25;;;21.12;55.53
31121;BME280;17770;45.966;13.632;2022-09-27T05:56:20;98867.31;;;21.12;55.30
31121;BME280;17770;45.966;13.632;2022-09-27T05:59:03;98859.44;;;21.12;55.40
31121;BME280;17770;45.966;13.632;2022-09-27T06:01:42;98858.66;;;21.12;55.84
31121;BME280;17770;45.966;13.632;2022-09-27T06:04:31;98864.84;;;21.11;55.31
31121;BME280;17770;45.966;13.632;2022-09-27T06:07:20;98857.13;;;21.09;55.51
31121;BME280;17770;45.966;13.632;2022-09-27T06:09:46;98860.59;;;21.10;55.43
31121;BME280;17770;45.966;13.632;2022-09-27T06:12:12;98860.59;;;21.10;55.41
31121;BME280;17770;45.966;13.632;2022-09-27T06:14:38;98857.13;;;21.09;55.44
31121;BME280;17770;45.966;13.632;2022-09-27T06:17:09;98853.56;;;21.10;55.46
31121;BME280;17770;45.966;13.632;2022-09-27T06:19:38;98854.66;;;21.08;55.69
31121;BME280;17770;45.966;13.632;2022-09-27T06:22:05;98853.56;;;21.10;55.89
31121;BME280;17770;45.966;13.632;2022-09-27T06:24:40;98849.09;;;21.11;55.55
31121;BME280;17770;45.966;13.632;2022-09-27T06:27:14;98856.19;;;21.10;55.41
31121;BME280;17770;45.966;13.632;2022-09-27T06:29:54;98858.94;;;21.09;55.20
31121;BME280;17770;45.966;13.632;2022-09-27T06:32:34;98860.72;;;21.08;55.25
31121;BME280;17770;45.966;13.632;2022-09-27T06:35:15;98852.03;;;21.08;55.41
31121;BME280;17770;45.966;13.632;2022-09-27T06:37:41;98865.13;;;21.08;55.32
31121;BME280;17770;45.966;13.632;2022-09-27T06:40:07;98859.09;;;21.07;55.16
31121;BME280;17770;45.966;13.632;2022-09-27T06:42:48;98864.34;;;21.07;55.19
31121;BME280;17770;45.966;13.632;2022-09-27T06:45:35;98870.53;;;21.06;55.24
31121;BME280;17770;45.966;13.632;2022-09-27T06:48:30;98869.69;;;21.06;55.27
31121;BME280;17770;45.966;13.632;2022-09-27T06:51:16;98872.31;;;21.06;55.16
31121;BME280;17770;45.966;13.632;2022-09-27T06:53:42;98876.75;;;21.05;55.06
31121;BME280;17770;45.966;13.632;2022-09-27T06:56:08;98870.69;;;21.05;55.20
31121;BME280;17770;45.966;13.632;2022-09-27T06:58:44;98882.00;;;21.05;55.14
31121;BME280;17770;45.966;13.632;2022-09-27T07:01:41;98882.16;;;21.04;54.79
31121;BME280;17770;45.966;13.632;2022-09-27T07:04:25;98886.41;;;21.05;55.26
31121;BME280;17770;45.966;13.632;2022-09-27T07:07:10;98883.94;;;21.03;55.32
31121;BME280;17770;45.966;13.632;2022-09-27T07:09:44;98880.50;;;21.03;55.16
31121;BME280;17770;45.966;13.632;2022-09-27T07:12:11;98874.28;;;21.04;55.10
31121;BME280;17770;45.966;13.632;2022-09-27T07:14:38;98863.97;;;21.02;54.80
31121;BME280;17770;45.966;13.632;2022-09-27T07:17:05;98863.13;;;21.02;54.92
31121;BME280;17770;45.966;13.632;2022-09-27T07:19:40;98857.88;;;21.02;55.26
31121;BME280;17770;45.966;13.632;2022-09-27T07:22:07;98856.09;;;21.02;54.92
31121;BME280;17770;45.966;13.632;2022-09-27T07:24:33;98861.34;;;21.02;54.79
31121;BME280;17770;45.966;13.632;2022-09-27T07:26:59;98857.88;;;21.02;55.00
31121;BME280;17770;45.966;13.632;2022-09-27T07:29:26;98853.59;;;21.01;54.63
31121;BME280;17770;45.966;13.632;2022-09-27T07:31:52;98852.63;;;21.02;54.66
31121;BME280;17770;45.966;13.632;2022-09-27T07:34:18;98856.22;;;21.01;54.88
31121;BME280;17770;45.966;13.632;2022-09-27T07:36:45;98848.34;;;21.01;54.94
31121;BME280;17770;45.966;13.632;2022-09-27T07:39:11;98843.25;;;20.99;54.79
31121;BME280;17770;45.966;13.632;2022-09-27T07:41:38;98843.09;;;21.01;54.54
31121;BME280;17770;45.966;13.632;2022-09-27T07:44:05;98847.53;;;21.00;54.75
31121;BME280;17770;45.966;13.632;2022-09-27T07:46:37;98853.75;;;20.99;54.83
31121;BME280;17770;45.966;13.632;2022-09-27T07:49:16;98851.13;;;20.99;54.79
31121;BME280;17770;45.966;13.632;2022-09-27T07:52:19;98852.09;;;20.98;54.90
31121;BME280;17770;45.966;13.632;2022-09-27T07:55:18;98852.09;;;20.98;54.75
31121;BME280;17770;45.966;13.632;2022-09-27T07:58:03;98857.47;;;20.97;54.84
31121;BME280;17770;45.966;13.632;2022-09-27T08:00:29;98855.72;;;20.97;54.25
31121;BME280;17770;45.966;13.632;2022-09-27T08:02:55;98847.84;;;20.97;54.96
31121;BME280;17770;45.966;13.632;2022-09-27T08:05:21;98856.63;;;20.96;54.69
31121;BME280;17770;45.966;13.632;2022-09-27T08:07:47;98859.25;;;20.96;54.68
31121;BME280;17770;45.966;13.632;2022-09-27T08:10:13;98855.81;;;20.96;54.91
31121;BME280;17770;45.966;13.632;2022-09-27T08:12:38;98853.22;;;20.96;54.55
31121;BME280;17770;45.966;13.632;2022-09-27T08:15:04;98847.13;;;20.95;54.94
31121;BME280;17770;45.966;13.632;2022-09-27T08:17:31;98846.28;;;20.95;54.66
31121;BME280;17770;45.966;13.632;2022-09-27T08:20:07;98844.66;;;20.94;54.96
31121;BME280;17770;45.966;13.632;2022-09-27T08:22:58;98855.13;;;20.94;54.70
31121;BME280;17770;45.966;13.632;2022-09-27T08:25:32;98874.44;;;20.93;54.48
31121;BME280;17770;45.966;13.632;2022-09-27T08:28:04;98881.34;;;20.94;55.12
31121;BME280;17770;45.966;13.632;2022-09-27T08:30:37;98879.53;;;20.94;54.65
31121;BME280;17770;45.966;13.632;2022-09-27T08:33:03;98855.94;;;20.94;55.01
31121;BME280;17770;45.966;13.632;2022-09-27T08:35:30;98863.16;;;20.92;54.82
31121;BME280;17770;45.966;13.632;2022-09-27T08:37:58;98864.94;;;20.92;54.81
31121;BME280;17770;45.966;13.632;2022-09-27T08:43:17;98911.28;;;20.91;54.61
31121;BME280;17770;45.966;13.632;2022-09-27T08:48:14;98932.25;;;20.91;54.57
31121;BME280;17770;45.966;13.632;2022-09-27T08:50:40;98886.91;;;20.91;54.94
31121;BME280;17770;45.966;13.632;2022-09-27T08:55:57;98892.00;;;20.92;54.80
31121;BME280;17770;45.966;13.632;2022-09-27T08:58:32;98886.75;;;20.92;54.56
31121;BME280;17770;45.966;13.632;2022-09-27T09:01:03;98897.22;;;20.92;54.57
31121;BME280;17770;45.966;13.632;2022-09-27T09:03:46;98912.13;;;20.92;54.52
31121;BME280;17770;45.966;13.632;2022-09-27T09:11:35;98898.19;;;20.91;53.89
31121;BME280;17770;45.966;13.632;2022-09-27T09:17:28;98890.03;;;20.94;54.27
31121;BME280;17770;45.966;13.632;2022-09-27T09:20:33;98885.91;;;20.92;54.01
31121;BME280;17770;45.966;13.632;2022-09-27T09:33:56;98881.22;;;20.95;53.47
31121;BME280;17770;45.966;13.632;2022-09-27T09:36:31;98878.59;;;20.95;53.27
31121;BME280;17770;45.966;13.632;2022-09-27T09:39:04;98886.44;;;20.95;53.72
31121;BME280;17770;45.966;13.632;2022-09-27T09:41:34;98885.63;;;20.95;53.41
31121;BME280;17770;45.966;13.632;2022-09-27T09:44:20;98875.97;;;20.95;53.55
31121;BME280;17770;45.966;13.632;2022-09-27T09:46:50;98869.06;;;20.94;53.64
31121;BME280;17770;45.966;13.632;2022-09-27T09:49:23;98871.81;;;20.93;53.31
31121;BME280;17770;45.966;13.632;2022-09-27T09:51:53;98868.25;;;20.94;53.39
31121;BME280;17770;45.966;13.632;2022-09-27T09:54:26;98874.28;;;20.94;53.60
31121;BME280;17770;45.966;13.632;2022-09-27T09:57:37;98869.06;;;20.94;53.64
31121;BME280;17770;45.966;13.632;2022-09-27T09:59:59;98863.00;;;20.94;53.41
31121;BME280;17770;45.966;13.632;2022-09-27T10:05:01;98857.75;;;20.94;53.42
31121;BME280;17770;45.966;13.632;2022-09-27T10:07:27;98872.50;;;20.95;53.57
31121;BME280;17770;45.966;13.632;2022-09-27T10:09:55;98866.84;;;20.99;53.49
31121;BME280;17770;45.966;13.632;2022-09-27T10:12:40;98858.19;;;20.99;53.35
31121;BME280;17770;45.966;13.632;2022-09-27T10:15:12;98862.44;;;21.00;53.27
31121;BME280;17770;45.966;13.632;2022-09-27T10:17:39;98861.44;;;21.01;53.51
31121;BME280;17770;45.966;13.632;2022-09-27T10:20:12;98862.13;;;21.03;53.04
31121;BME280;17770;45.966;13.632;2022-09-27T10:22:46;98868.22;;;21.03;53.53
31121;BME280;17770;45.966;13.632;2022-09-27T10:31:00;98864.59;;;21.04;53.53
31121;BME280;17770;45.966;13.632;2022-09-27T10:33:31;98865.28;;;21.06;53.33
31121;BME280;17770;45.966;13.632;2022-09-27T10:36:02;98862.81;;;21.05;53.41
31121;BME280;17770;45.966;13.632;2022-09-27T10:38:31;98866.44;;;21.04;53.25
31121;BME280;17770;45.966;13.632;2022-09-27T10:41:33;98865.28;;;21.06;53.03
31121;BME280;17770;45.966;13.632;2022-09-27T10:47:00;98848.88;;;21.04;53.24
31121;BME280;17770;45.966;13.632;2022-09-27T10:49:38;98855.94;;;21.04;53.27
31121;BME280;17770;45.966;13.632;2022-09-27T10:52:15;98866.56;;;21.02;53.29
31121;BME280;17770;45.966;13.632;2022-09-27T10:54:51;98870.53;;;21.06;53.32
31121;BME280;17770;45.966;13.632;2022-09-27T10:57:21;98870.84;;;21.03;52.98
31121;BME280;17770;45.966;13.632;2022-09-27T10:59:50;98877.06;;;21.02;53.12
31121;BME280;17770;45.966;13.632;2022-09-27T11:02:21;98886.72;;;21.02;53.23
31121;BME280;17770;45.966;13.632;2022-09-27T11:07:28;98880.63;;;21.01;53.30
31121;BME280;17770;45.966;13.632;2022-09-27T11:10:18;98878.00;;;21.01;53.28
31121;BME280;17770;45.966;13.632;2022-09-27T11:13:03;98874.72;;;20.99;53.44
31121;BME280;17770;45.966;13.632;2022-09-27T11:15:30;98865.06;;;21.00;53.12
31121;BME280;17770;45.966;13.632;2022-09-27T11:18:08;98852.94;;;20.99;53.43
31121;BME280;17770;45.966;13.632;2022-09-27T11:20:45;98859.81;;;21.00;53.30
31121;BME280;17770;45.966;13.632;2022-09-27T11:23:24;98865.91;;;21.00;53.17
31121;BME280;17770;45.966;13.632;2022-09-27T11:26:01;98858.84;;;21.01;53.27
31121;BME280;17770;45.966;13.632;2022-09-27T11:28:49;98855.41;;;21.00;53.07
31121;BME280;17770;45.966;13.632;2022-09-27T11:31:57;98854.44;;;21.01;53.10
31121;BME280;17770;45.966;13.632;2022-09-27T11:34:37;98850.00;;;21.02;53.20
31121;BME280;17770;45.966;13.632;2022-09-27T12:20:40;98848.88;;;21.04;53.64
31121;BME280;17770;45.966;13.632;2022-09-27T12:23:22;98843.50;;;21.06;53.43
31121;BME280;17770;45.966;13.632;2022-09-27T12:25:59;98849.56;;;21.06;53.45
31121;BME280;17770;45.966;13.632;2022-09-27T12:31:04;98847.78;;;21.07;53.34
31121;BME280;17770;45.966;13.632;2022-09-27T12:36:15;98845.16;;;21.07;53.32
31121;BME280;17770;45.966;13.632;2022-09-27T12:41:30;98839.47;;;21.11;53.51
31121;BME280;17770;45.966;13.632;2022-09-27T12:44:14;98854.34;;;21.11;53.46
31121;BME280;17770;45.966;13.632;2022-09-27T12:47:06;98862.75;;;21.14;53.38
31121;BME280;17770;45.966;13.632;2022-09-27T12:50:09;98850.47;;;21.15;53.17
31121;BME280;17770;45.966;13.632;2022-09-27T12:52:27;98858.19;;;21.16;53.22
31121;BME280;17770;45.966;13.632;2022-09-27T13:00:24;98855.56;;;21.16;53.37
31121;BME280;17770;45.966;13.632;2022-09-27T13:13:38;98853.63;;;21.18;53.54
31121;BME280;17770;45.966;13.632;2022-09-27T13:16:07;98853.47;;;21.20;53.47
31121;BME280;17770;45.966;13.632;2022-09-27T13:18:48;98859.72;;;21.19;53.35
31121;BME280;17770;45.966;13.632;2022-09-27T13:27:08;98843.00;;;21.20;53.56
31121;BME280;17770;45.966;13.632;2022-09-27T13:29:48;98840.38;;;21.20;53.39
31121;BME280;17770;45.966;13.632;2022-09-27T13:32:23;98831.50;;;21.21;53.65
31121;BME280;17770;45.966;13.632;2022-09-27T13:34:57;98826.28;;;21.21;53.26
31121;BME280;17770;45.966;13.632;2022-09-27T13:46:03;98835.72;;;21.31;53.31
31121;BME280;17770;45.966;13.632;2022-09-27T13:56:58;98869.81;;;21.31;53.39
31121;BME280;17770;45.966;13.632;2022-09-27T13:59:38;98889.28;;;21.29;53.26
31121;BME280;17770;45.966;13.632;2022-09-27T14:03:03;98902.53;;;21.27;53.34
31121;BME280;17770;45.966;13.632;2022-09-27T14:06:06;98892.75;;;21.29;53.61
31121;BME280;17770;45.966;13.632;2022-09-27T14:10:56;98893.72;;;21.28;53.30
31121;BME280;17770;45.966;13.632;2022-09-27T14:13:22;98900.91;;;21.26;53.38
31121;BME280;17770;45.966;13.632;2022-09-27T14:16:02;98903.53;;;21.26;53.30
31121;BME280;17770;45.966;13.632;2022-09-27T14:18:30;98896.50;;;21.27;53.36
31121;BME280;17770;45.966;13.632;2022-09-27T14:26:44;98910.25;;;21.29;53.28
31121;BME280;17770;45.966;13.632;2022-09-27T14:29:14;98912.88;;;21.29;53.33
31121;BME280;17770;45.966;13.632;2022-09-27T14:31:41;98927.53;;;21.31;53.26
31121;BME280;17770;45.966;13.632;2022-09-27T14:34:15;98923.25;;;21.30;53.45
31121;BME280;17770;45.966;13.632;2022-09-27T14:36:47;98917.19;;;21.30;53.19
31121;BME280;17770;45.966;13.632;2022-09-27T14:39:42;98920.47;;;21.32;53.26
31121;BME280;17770;45.966;13.632;2022-09-27T14:42:25;98924.06;;;21.31;53.17
31121;BME280;17770;45.966;13.632;2022-09-27T14:44:51;98923.25;;;21.30;53.24
31121;BME280;17770;45.966;13.632;2022-09-27T14:47:22;98926.69;;;21.31;53.19
31121;BME280;17770;45.966;13.632;2022-09-27T14:49:48;98931.25;;;21.29;53.46
31121;BME280;17770;45.966;13.632;2022-09-27T14:52:15;98929.47;;;21.29;53.31
31121;BME280;17770;45.966;13.632;2022-09-27T14:54:42;98915.50;;;21.29;53.26
31121;BME280;17770;45.966;13.632;2022-09-27T14:57:08;98911.25;;;21.28;53.41
31121;BME280;17770;45.966;13.632;2022-09-27T14:59:34;98913.88;;;21.28;53.30
31121;BME280;17770;45.966;13.632;2022-09-27T15:02:01;98933.88;;;21.29;52.91
31121;BME280;17770;45.966;13.632;2022-09-27T15:04:29;98936.50;;;21.29;53.27
31121;BME280;17770;45.966;13.632;2022-09-27T15:06:56;98947.81;;;21.29;53.48
31121;BME280;17770;45.966;13.632;2022-09-27T15:09:23;98946.19;;;21.28;53.01
31121;BME280;17770;45.966;13.632;2022-09-27T15:11:51;98940.78;;;21.30;53.23
31121;BME280;17770;45.966;13.632;2022-09-27T15:14:19;98938.31;;;21.28;53.31
31121;BME280;17770;45.966;13.632;2022-09-27T15:16:46;98939.25;;;21.27;53.44
31121;BME280;17770;45.966;13.632;2022-09-27T15:19:14;98940.94;;;21.28;53.50
31121;BME280;17770;45.966;13.632;2022-09-27T15:21:41;98932.22;;;21.28;53.38
31121;BME280;17770;45.966;13.632;2022-09-27T15:24:34;98934.69;;;21.29;53.37
31121;BME280;17770;45.966;13.632;2022-09-27T15:26:53;98932.09;;;21.29;53.27
31121;BME280;17770;45.966;13.632;2022-09-27T15:29:19;98935.53;;;21.30;53.06
31121;BME280;17770;45.966;13.632;2022-09-27T15:31:56;98943.41;;;21.30;53.19
31121;BME280;17770;45.966;13.632;2022-09-27T15:34:23;98945.19;;;21.29;53.02
31121;BME280;17770;45.966;13.632;2022-09-27T15:36:59;98945.19;;;21.29;53.08
31121;BME280;17770;45.966;13.632;2022-09-27T15:39:29;98942.56;;;21.29;53.29
31121;BME280;17770;45.966;13.632;2022-09-27T15:49:51;98960.94;;;21.29;53.00
31121;BME280;17770;45.966;13.632;2022-09-27T15:55:21;98957.63;;;21.27;53.20
31121;BME280;17770;45.966;13.632;2022-09-27T15:57:51;98964.94;;;21.24;53.36
31121;BME280;17770;45.966;13.632;2022-09-27T16:00:18;98969.41;;;21.23;53.26
31121;BME280;17770;45.966;13.632;2022-09-27T16:02:48;98970.19;;;21.24;53.33
31121;BME280;17770;45.966;13.632;2022-09-27T16:05:14;98972.81;;;21.24;53.62
31121;BME280;17770;45.966;13.632;2022-09-27T16:07:40;98976.28;;;21.24;53.27
31121;BME280;17770;45.966;13.632;2022-09-27T16:12:39;98979.06;;;21.23;53.65
31121;BME280;17770;45.966;13.632;2022-09-27T16:15:05;98986.91;;;21.23;53.51
31121;BME280;17770;45.966;13.632;2022-09-27T16:17:31;98988.56;;;21.24;53.63
31121;BME280;17770;45.966;13.632;2022-09-27T16:20:03;98986.09;;;21.22;53.72
31121;BME280;17770;45.966;13.632;2022-09-27T16:22:29;98997.41;;;21.23;53.46
31121;BME280;17770;45.966;13.632;2022-09-27T16:24:56;98996.56;;;21.22;53.63
31121;BME280;17770;45.966;13.632;2022-09-27T16:27:26;99001.66;;;21.24;53.52
31121;BME280;17770;45.966;13.632;2022-09-27T16:29:52;98996.72;;;21.21;53.73
31121;BME280;17770;45.966;13.632;2022-09-27T16:32:18;98996.56;;;21.22;53.28
31121;BME280;17770;45.966;13.632;2022-09-27T16:34:44;98979.34;;;21.20;53.76
31121;BME280;17770;45.966;13.632;2022-09-27T16:37:10;98984.44;;;21.21;53.58
31121;BME280;17770;45.966;13.632;2022-09-27T16:39:36;98986.38;;;21.19;53.73